createdAt,value
2018-06-23T00:00:00.274Z,1023.06
2018-06-23T00:01:00.303Z,1023.08
2018-06-23T00:02:00.336Z,1023.08
2018-06-23T00:03:00.669Z,1023.08
2018-06-23T00:04:00.401Z,1023.15
2018-06-23T00:05:00.433Z,1023.14
2018-06-23T00:06:00.459Z,1023.17
2018-06-23T00:07:00.496Z,1023.13
2018-06-23T00:08:00.525Z,1023.15
2018-06-23T00:09:00.854Z,1023.12
2018-06-23T00:10:00.588Z,1023.16
2018-06-23T00:11:00.668Z,1023.14
2018-06-23T00:12:00.659Z,1023.12
2018-06-23T00:13:00.683Z,1023.11
2018-06-23T00:14:00.718Z,1023.12
2018-06-23T00:15:00.748Z,1023.08
2018-06-23T00:16:00.779Z,1023.11
2018-06-23T00:17:00.858Z,1023.09
2018-06-23T00:18:00.865Z,1023.11
2018-06-23T00:19:00.877Z,1023.11
2018-06-23T00:20:00.917Z,1023.08
2018-06-23T00:21:01.327Z,1023.04
2018-06-23T00:22:00.979Z,1023.07
2018-06-23T00:23:01.000Z,1023.06
2018-06-23T00:24:01.032Z,1023.06
2018-06-23T00:25:01.060Z,1023.06
2018-06-23T00:26:01.095Z,1023.03
2018-06-23T00:27:01.385Z,1023.06
2018-06-23T00:28:01.165Z,1023.05
2018-06-23T00:29:01.182Z,1023.05
2018-06-23T00:30:01.214Z,1023.06
2018-06-23T00:31:01.259Z,1023.05
2018-06-23T00:32:01.288Z,1023.09
2018-06-23T00:33:01.562Z,1023.09
2018-06-23T00:34:01.340Z,1023.12
2018-06-23T00:35:01.423Z,1023.14
2018-06-23T00:36:01.416Z,1023.12
2018-06-23T00:37:01.435Z,1023.15
2018-06-23T00:38:01.466Z,1023.13
2018-06-23T00:39:01.853Z,1023.11
2018-06-23T00:40:01.529Z,1023.14
2018-06-23T00:41:01.560Z,1023.15
2018-06-23T00:42:01.603Z,1023.10
2018-06-23T00:43:01.623Z,1023.17
2018-06-23T00:44:01.656Z,1023.17
2018-06-23T00:45:01.987Z,1023.20
2018-06-23T00:46:01.718Z,1023.13
2018-06-23T00:47:01.800Z,1023.14
2018-06-23T00:48:01.780Z,1023.12
2018-06-23T00:49:01.813Z,1023.07
2018-06-23T00:50:01.839Z,1023.09
2018-06-23T00:51:02.138Z,1023.07
2018-06-23T00:52:01.908Z,1023.10
2018-06-23T00:53:01.950Z,1023.14
2018-06-23T00:54:01.969Z,1023.12
2018-06-23T00:55:01.999Z,1023.16
2018-06-23T00:56:02.026Z,1023.14
2018-06-23T00:57:02.313Z,1023.07
2018-06-23T00:58:02.086Z,1023.13
2018-06-23T00:59:02.123Z,1023.11
2018-06-23T01:00:02.149Z,1023.10
2018-06-23T01:01:02.204Z,1023.11
2018-06-23T01:02:02.216Z,1023.11
2018-06-23T01:03:02.497Z,1023.11
2018-06-23T01:04:02.278Z,1023.08
2018-06-23T01:05:02.322Z,1023.13
2018-06-23T01:06:02.337Z,1023.16
2018-06-23T01:07:02.372Z,1023.17
2018-06-23T01:08:02.414Z,1023.19
2018-06-23T01:09:02.733Z,1023.19
2018-06-23T01:10:02.515Z,1023.19
2018-06-23T01:11:02.496Z,1023.17
2018-06-23T01:12:02.528Z,1023.18
2018-06-23T01:13:02.556Z,1023.19
2018-06-23T01:14:02.588Z,1023.18
2018-06-23T01:15:02.615Z,1023.16
2018-06-23T01:16:02.948Z,1023.12
2018-06-23T01:17:02.678Z,1023.15
2018-06-23T01:18:02.720Z,1023.11
2018-06-23T01:19:02.739Z,1023.13
2018-06-23T01:20:02.781Z,1023.12
2018-06-23T01:21:02.806Z,1023.09
2018-06-23T01:22:02.848Z,1023.10
2018-06-23T01:23:03.112Z,1023.11
2018-06-23T01:24:02.901Z,1023.08
2018-06-23T01:25:02.923Z,1023.13
2018-06-23T01:26:02.965Z,1023.14
2018-06-23T01:27:02.990Z,1023.14
2018-06-23T01:28:03.017Z,1023.11
2018-06-23T01:29:03.063Z,1023.14
2018-06-23T01:30:03.332Z,1023.11
2018-06-23T01:31:03.112Z,1023.10
2018-06-23T01:32:03.145Z,1023.13
2018-06-23T01:33:03.175Z,1023.12
2018-06-23T01:34:03.203Z,1023.13
2018-06-23T01:35:03.249Z,1023.10
2018-06-23T01:36:03.267Z,1023.11
2018-06-23T01:37:03.545Z,1023.09
2018-06-23T01:38:03.333Z,1023.12
2018-06-23T01:39:03.362Z,1023.09
2018-06-23T01:40:03.389Z,1023.12
2018-06-23T01:41:03.418Z,1023.12
2018-06-23T01:42:03.469Z,1023.12
2018-06-23T01:43:03.481Z,1023.17
2018-06-23T01:44:03.514Z,1023.22
2018-06-23T01:45:03.555Z,1023.18
2018-06-23T01:46:03.580Z,1023.21
2018-06-23T01:47:03.609Z,1023.21
2018-06-23T01:48:03.637Z,1023.18
2018-06-23T01:49:03.668Z,1023.15
2018-06-23T01:50:03.959Z,1023.13
2018-06-23T01:51:03.728Z,1023.11
2018-06-23T01:52:03.767Z,1023.12
2018-06-23T01:53:03.790Z,1023.14
2018-06-23T01:54:03.830Z,1023.15
2018-06-23T01:55:03.858Z,1023.15
2018-06-23T01:56:03.882Z,1023.15
2018-06-23T01:57:04.227Z,1023.11
2018-06-23T01:58:03.942Z,1023.11
2018-06-23T01:59:03.976Z,1023.08
2018-06-23T02:00:04.007Z,1023.04
2018-06-23T02:01:04.067Z,1023.05
2018-06-23T02:02:04.073Z,1023.02
2018-06-23T02:03:04.141Z,1023.11
2018-06-23T02:04:04.437Z,1023.08
2018-06-23T02:05:04.162Z,1023.09
2018-06-23T02:06:04.204Z,1023.11
2018-06-23T02:07:04.222Z,1023.12
2018-06-23T02:08:04.255Z,1023.14
2018-06-23T02:09:04.283Z,1023.13
2018-06-23T02:10:04.317Z,1023.11
2018-06-23T02:11:04.595Z,1023.13
2018-06-23T02:12:04.524Z,1023.10
2018-06-23T02:13:04.420Z,1023.08
2018-06-23T02:14:04.449Z,1023.03
2018-06-23T02:15:04.468Z,1023.03
2018-06-23T02:16:04.501Z,1023.08
2018-06-23T02:17:04.532Z,1023.03
2018-06-23T02:18:04.821Z,1023.00
2018-06-23T02:19:04.589Z,1023.01
2018-06-23T02:20:04.636Z,1023.01
2018-06-23T02:21:04.649Z,1023.02
2018-06-23T02:22:04.687Z,1023.03
2018-06-23T02:23:04.741Z,1022.98
2018-06-23T02:24:04.743Z,1023.00
2018-06-23T02:25:05.027Z,1023.00
2018-06-23T02:26:04.803Z,1023.03
2018-06-23T02:27:04.835Z,1023.01
2018-06-23T02:28:04.869Z,1023.01
2018-06-23T02:29:04.902Z,1023.00
2018-06-23T02:30:04.929Z,1023.03
2018-06-23T02:31:05.212Z,1023.04
2018-06-23T02:32:04.988Z,1023.03
2018-06-23T02:33:05.024Z,1023.08
2018-06-23T02:34:05.050Z,1023.08
2018-06-23T02:35:05.090Z,1023.12
2018-06-23T02:36:05.112Z,1023.10
2018-06-23T02:37:05.396Z,1023.10
2018-06-23T02:38:05.174Z,1023.10
2018-06-23T02:39:05.226Z,1023.13
2018-06-23T02:40:05.250Z,1023.08
2018-06-23T02:41:05.297Z,1023.14
2018-06-23T02:42:05.296Z,1023.11
2018-06-23T02:43:05.575Z,1023.10
2018-06-23T02:44:05.356Z,1023.12
2018-06-23T02:45:05.421Z,1023.04
2018-06-23T02:46:05.428Z,1023.08
2018-06-23T02:47:05.455Z,1023.07
2018-06-23T02:48:05.540Z,1023.11
2018-06-23T02:49:05.810Z,1023.07
2018-06-23T02:50:05.542Z,1023.14
2018-06-23T02:51:05.571Z,1023.10
2018-06-23T02:52:05.605Z,1023.10
2018-06-23T02:53:05.633Z,1023.05
2018-06-23T02:54:05.678Z,1023.10
2018-06-23T02:55:06.003Z,1023.09
2018-06-23T02:56:05.730Z,1023.08
2018-06-23T02:57:05.754Z,1023.11
2018-06-23T02:58:05.787Z,1023.09
2018-06-23T02:59:05.818Z,1023.09
2018-06-23T03:00:05.851Z,1023.14
2018-06-23T03:01:06.182Z,1023.15
2018-06-23T03:02:05.909Z,1023.13
2018-06-23T03:03:06.068Z,1023.14
2018-06-23T03:04:05.974Z,1023.13
2018-06-23T03:05:06.005Z,1023.15
2018-06-23T03:06:06.032Z,1023.13
2018-06-23T03:07:06.323Z,1023.14
2018-06-23T03:08:06.096Z,1023.12
2018-06-23T03:09:06.126Z,1023.14
2018-06-23T03:10:06.161Z,1023.11
2018-06-23T03:11:06.190Z,1023.11
2018-06-23T03:12:06.215Z,1023.12
2018-06-23T03:13:06.551Z,1023.13
2018-06-23T03:14:06.277Z,1023.12
2018-06-23T03:15:06.308Z,1023.13
2018-06-23T03:16:06.344Z,1023.12
2018-06-23T03:17:06.377Z,1023.13
2018-06-23T03:18:06.409Z,1023.09
2018-06-23T03:19:06.735Z,1023.12
2018-06-23T03:20:06.483Z,1023.10
2018-06-23T03:21:06.551Z,1023.11
2018-06-23T03:22:06.542Z,1023.11
2018-06-23T03:23:06.572Z,1023.09
2018-06-23T03:24:06.589Z,1023.10
2018-06-23T03:25:06.866Z,1023.11
2018-06-23T03:26:06.659Z,1023.14
2018-06-23T03:27:06.676Z,1023.12
2018-06-23T03:28:06.725Z,1023.13
2018-06-23T03:29:06.748Z,1023.19
2018-06-23T03:30:06.770Z,1023.22
2018-06-23T03:31:07.101Z,1023.26
2018-06-23T03:32:06.828Z,1023.26
2018-06-23T03:33:06.858Z,1023.26
2018-06-23T03:34:06.890Z,1023.28
2018-06-23T03:35:06.921Z,1023.31
2018-06-23T03:36:06.955Z,1023.30
2018-06-23T03:37:07.232Z,1023.27
2018-06-23T03:38:07.015Z,1023.28
2018-06-23T03:39:07.047Z,1023.28
2018-06-23T03:40:07.089Z,1023.33
2018-06-23T03:41:07.107Z,1023.34
2018-06-23T03:42:07.139Z,1023.33
2018-06-23T03:43:07.470Z,1023.37
2018-06-23T03:44:07.208Z,1023.34
2018-06-23T03:45:07.243Z,1023.31
2018-06-23T03:46:07.261Z,1023.33
2018-06-23T03:47:07.293Z,1023.35
2018-06-23T03:48:07.320Z,1023.31
2018-06-23T03:49:07.351Z,1023.33
2018-06-23T03:50:07.641Z,1023.29
2018-06-23T03:51:07.417Z,1023.29
2018-06-23T03:52:07.468Z,1023.29
2018-06-23T03:53:07.472Z,1023.26
2018-06-23T03:54:07.513Z,1023.26
2018-06-23T03:55:07.535Z,1023.30
2018-06-23T03:56:07.565Z,1023.34
2018-06-23T03:57:07.894Z,1023.33
2018-06-23T03:58:07.632Z,1023.36
2018-06-23T03:59:07.673Z,1023.34
2018-06-23T04:00:07.702Z,1023.38
2018-06-23T04:01:07.738Z,1023.39
2018-06-23T04:02:07.758Z,1023.42
2018-06-23T04:03:07.784Z,1023.38
2018-06-23T04:04:08.059Z,1023.40
2018-06-23T04:05:07.840Z,1023.40
2018-06-23T04:06:07.870Z,1023.44
2018-06-23T04:07:07.902Z,1023.44
2018-06-23T04:08:07.932Z,1023.39
2018-06-23T04:09:08.066Z,1023.39
2018-06-23T04:10:07.995Z,1023.37
2018-06-23T04:11:08.438Z,1023.40
2018-06-23T04:12:08.062Z,1023.42
2018-06-23T04:13:08.086Z,1023.40
2018-06-23T04:14:08.115Z,1023.36
2018-06-23T04:15:08.152Z,1023.38
2018-06-23T04:16:08.178Z,1023.38
2018-06-23T04:17:08.206Z,1023.36
2018-06-23T04:18:08.494Z,1023.35
2018-06-23T04:19:08.278Z,1023.36
2018-06-23T04:20:08.302Z,1023.38
2018-06-23T04:21:08.341Z,1023.38
2018-06-23T04:22:08.366Z,1023.39
2018-06-23T04:23:08.394Z,1023.39
2018-06-23T04:24:08.426Z,1023.40
2018-06-23T04:25:08.754Z,1023.40
2018-06-23T04:26:08.495Z,1023.42
2018-06-23T04:27:08.514Z,1023.41
2018-06-23T04:28:08.556Z,1023.45
2018-06-23T04:29:08.598Z,1023.43
2018-06-23T04:30:08.609Z,1023.48
2018-06-23T04:31:08.636Z,1023.44
2018-06-23T04:32:08.918Z,1023.45
2018-06-23T04:33:08.699Z,1023.38
2018-06-23T04:34:08.732Z,1023.42
2018-06-23T04:35:08.763Z,1023.40
2018-06-23T04:36:08.795Z,1023.40
2018-06-23T04:37:08.823Z,1023.41
2018-06-23T04:38:08.852Z,1023.43
2018-06-23T04:39:09.192Z,1023.43
2018-06-23T04:40:13.156Z,1023.45
2018-06-23T04:41:08.952Z,1023.44
2018-06-23T04:42:08.982Z,1023.45
2018-06-23T04:43:09.010Z,1023.43
2018-06-23T04:44:09.035Z,1023.46
2018-06-23T04:45:09.119Z,1023.41
2018-06-23T04:46:09.399Z,1023.43
2018-06-23T04:47:09.129Z,1023.45
2018-06-23T04:48:09.162Z,1023.42
2018-06-23T04:49:09.192Z,1023.41
2018-06-23T04:50:09.229Z,1023.42
2018-06-23T04:51:09.255Z,1023.43
2018-06-23T04:52:09.290Z,1023.42
2018-06-23T04:53:09.564Z,1023.46
2018-06-23T04:54:09.347Z,1023.41
2018-06-23T04:55:09.376Z,1023.42
2018-06-23T04:56:09.409Z,1023.38
2018-06-23T04:57:09.443Z,1023.37
2018-06-23T04:58:09.467Z,1023.38
2018-06-23T04:59:09.497Z,1023.38
2018-06-23T05:00:09.780Z,1023.40
2018-06-23T05:01:09.573Z,1023.39
2018-06-23T05:02:09.591Z,1023.36
2018-06-23T05:03:09.715Z,1023.42
2018-06-23T05:04:09.652Z,1023.42
2018-06-23T05:05:09.689Z,1023.39
2018-06-23T05:06:10.022Z,1023.35
2018-06-23T05:07:09.744Z,1023.40
2018-06-23T05:08:09.780Z,1023.37
2018-06-23T05:09:09.870Z,1023.37
2018-06-23T05:10:09.843Z,1023.38
2018-06-23T05:11:09.867Z,1023.37
2018-06-23T05:12:10.300Z,1023.36
2018-06-23T05:13:09.927Z,1023.34
2018-06-23T05:14:09.962Z,1023.33
2018-06-23T05:15:09.993Z,1023.33
2018-06-23T05:16:10.021Z,1023.32
2018-06-23T05:17:10.053Z,1023.31
2018-06-23T05:18:10.384Z,1023.32
2018-06-23T05:19:10.114Z,1023.29
2018-06-23T05:20:10.191Z,1023.30
2018-06-23T05:21:10.175Z,1023.32
2018-06-23T05:22:10.205Z,1023.29
2018-06-23T05:23:10.238Z,1023.36
2018-06-23T05:24:10.305Z,1023.33
2018-06-23T05:25:10.300Z,1023.31
2018-06-23T05:26:10.504Z,1023.28
2018-06-23T05:27:10.361Z,1023.32
2018-06-23T05:28:10.515Z,1023.27
2018-06-23T05:29:10.426Z,1023.33
2018-06-23T05:30:10.704Z,1023.29
2018-06-23T05:31:10.485Z,1023.34
2018-06-23T05:32:10.624Z,1023.32
2018-06-23T05:33:10.556Z,1023.30
2018-06-23T05:34:10.580Z,1023.33
2018-06-23T05:35:10.615Z,1023.33
2018-06-23T05:36:10.678Z,1023.31
2018-06-23T05:37:10.786Z,1023.30
2018-06-23T05:38:10.755Z,1023.29
2018-06-23T05:39:10.763Z,1023.33
2018-06-23T05:40:10.766Z,1023.32
2018-06-23T05:41:10.802Z,1023.30
2018-06-23T05:42:11.129Z,1023.28
2018-06-23T05:43:10.895Z,1023.28
2018-06-23T05:44:10.893Z,1023.32
2018-06-23T05:45:10.923Z,1023.32
2018-06-23T05:46:10.968Z,1023.22
2018-06-23T05:47:10.989Z,1023.23
2018-06-23T05:48:11.325Z,1023.22
2018-06-23T05:49:11.050Z,1023.26
2018-06-23T05:50:11.081Z,1023.27
2018-06-23T05:51:11.220Z,1023.25
2018-06-23T05:52:11.145Z,1023.21
2018-06-23T05:53:11.301Z,1023.19
2018-06-23T05:54:11.539Z,1023.18
2018-06-23T05:55:11.242Z,1023.18
2018-06-23T05:56:11.273Z,1023.15
2018-06-23T05:57:11.346Z,1023.16
2018-06-23T05:58:11.334Z,1023.16
2018-06-23T05:59:11.369Z,1023.16
2018-06-23T06:00:11.652Z,1023.19
2018-06-23T06:01:11.429Z,1023.21
2018-06-23T06:02:11.462Z,1023.22
2018-06-23T06:03:11.499Z,1023.24
2018-06-23T06:04:11.526Z,1023.25
2018-06-23T06:05:11.559Z,1023.26
2018-06-23T06:06:11.841Z,1023.29
2018-06-23T06:07:11.783Z,1023.29
2018-06-23T06:08:11.652Z,1023.32
2018-06-23T06:09:11.681Z,1023.35
2018-06-23T06:10:11.714Z,1023.31
2018-06-23T06:11:11.781Z,1023.31
2018-06-23T06:12:12.085Z,1023.35
2018-06-23T06:13:11.810Z,1023.37
2018-06-23T06:14:11.842Z,1023.38
2018-06-23T06:15:11.877Z,1023.44
2018-06-23T06:16:11.910Z,1023.38
2018-06-23T06:17:11.957Z,1023.38
2018-06-23T06:18:11.976Z,1023.40
2018-06-23T06:19:12.251Z,1023.35
2018-06-23T06:20:12.037Z,1023.37
2018-06-23T06:21:12.065Z,1023.30
2018-06-23T06:22:12.114Z,1023.29
2018-06-23T06:23:12.133Z,1023.33
2018-06-23T06:24:12.164Z,1023.35
2018-06-23T06:25:12.192Z,1023.37
2018-06-23T06:26:12.481Z,1023.34
2018-06-23T06:27:12.256Z,1023.37
2018-06-23T06:28:12.291Z,1023.35
2018-06-23T06:29:12.319Z,1023.33
2018-06-23T06:30:12.354Z,1023.30
2018-06-23T06:31:12.385Z,1023.29
2018-06-23T06:32:12.434Z,1023.26
2018-06-23T06:33:12.752Z,1023.24
2018-06-23T06:34:12.481Z,1023.25
2018-06-23T06:35:12.514Z,1023.24
2018-06-23T06:36:12.573Z,1023.26
2018-06-23T06:37:12.579Z,1023.31
2018-06-23T06:38:12.615Z,1023.34
2018-06-23T06:39:12.682Z,1023.37
2018-06-23T06:40:12.975Z,1023.38
2018-06-23T06:41:12.705Z,1023.39
2018-06-23T06:42:12.739Z,1023.34
2018-06-23T06:43:12.771Z,1023.43
2018-06-23T06:44:12.813Z,1023.39
2018-06-23T06:45:13.184Z,1023.46
2018-06-23T06:46:12.885Z,1023.45
2018-06-23T06:47:13.147Z,1023.43
2018-06-23T06:48:12.933Z,1023.43
2018-06-23T06:49:12.960Z,1023.44
2018-06-23T06:50:12.993Z,1023.40
2018-06-23T06:51:13.030Z,1023.47
2018-06-23T06:52:13.065Z,1023.43
2018-06-23T06:53:13.092Z,1023.45
2018-06-23T06:54:13.372Z,1023.46
2018-06-23T06:55:13.159Z,1023.43
2018-06-23T06:56:13.198Z,1023.40
2018-06-23T06:57:13.267Z,1023.41
2018-06-23T06:58:13.254Z,1023.43
2018-06-23T06:59:13.282Z,1023.46
2018-06-23T07:00:13.319Z,1023.45
2018-06-23T07:01:13.650Z,1023.47
2018-06-23T07:02:13.679Z,1023.47
2018-06-23T07:03:13.413Z,1023.48
2018-06-23T07:04:13.450Z,1023.48
2018-06-23T07:05:13.494Z,1023.47
2018-06-23T07:06:13.510Z,1023.47
2018-06-23T07:07:13.544Z,1023.48
2018-06-23T07:08:13.873Z,1023.47
2018-06-23T07:09:13.602Z,1023.49
2018-06-23T07:10:13.643Z,1023.52
2018-06-23T07:11:13.718Z,1023.51
2018-06-23T07:12:13.700Z,1023.53
2018-06-23T07:13:13.731Z,1023.52
2018-06-23T07:14:13.765Z,1023.50
2018-06-23T07:15:14.053Z,1023.49
2018-06-23T07:16:13.843Z,1023.50
2018-06-23T07:17:13.863Z,1023.51
2018-06-23T07:18:13.897Z,1023.52
2018-06-23T07:19:13.924Z,1023.59
2018-06-23T07:20:13.980Z,1023.58
2018-06-23T07:21:14.011Z,1023.60
2018-06-23T07:22:14.285Z,1023.56
2018-06-23T07:23:14.056Z,1023.59
2018-06-23T07:24:14.103Z,1023.56
2018-06-23T07:25:14.118Z,1023.60
2018-06-23T07:26:14.183Z,1023.61
2018-06-23T07:27:14.183Z,1023.63
2018-06-23T07:28:14.239Z,1023.67
2018-06-23T07:29:14.498Z,1023.59
2018-06-23T07:30:14.277Z,1023.65
2018-06-23T07:31:14.325Z,1023.63
2018-06-23T07:32:14.367Z,1023.61
2018-06-23T07:33:14.375Z,1023.63
2018-06-23T07:34:14.457Z,1023.63
2018-06-23T07:35:14.558Z,1023.61
2018-06-23T07:36:14.736Z,1023.59
2018-06-23T07:37:14.519Z,1023.61
2018-06-23T07:38:14.580Z,1023.59
2018-06-23T07:39:14.572Z,1023.55
2018-06-23T07:40:14.615Z,1023.55
2018-06-23T07:41:14.637Z,1023.49
2018-06-23T07:42:14.963Z,1023.53
2018-06-23T07:43:14.695Z,1023.49
2018-06-23T07:44:14.738Z,1023.51
2018-06-23T07:45:14.759Z,1023.52
2018-06-23T07:46:14.825Z,1023.49
2018-06-23T07:47:14.827Z,1023.52
2018-06-23T07:48:15.106Z,1023.48
2018-06-23T07:49:14.890Z,1023.46
2018-06-23T07:50:15.070Z,1023.52
2018-06-23T07:51:14.954Z,1023.46
2018-06-23T07:52:14.992Z,1023.54
2018-06-23T07:53:15.018Z,1023.51
2018-06-23T07:54:15.350Z,1023.50
2018-06-23T07:55:15.082Z,1023.51
2018-06-23T07:56:15.138Z,1023.43
2018-06-23T07:57:15.147Z,1023.44
2018-06-23T07:58:15.179Z,1023.43
2018-06-23T07:59:15.210Z,1023.43
2018-06-23T08:00:15.494Z,1023.43
2018-06-23T08:01:15.284Z,1023.43
2018-06-23T08:02:15.309Z,1023.38
2018-06-23T08:03:15.342Z,1023.44
2018-06-23T08:04:15.397Z,1023.38
2018-06-23T08:05:15.404Z,1023.33
2018-06-23T08:06:15.701Z,1023.36
2018-06-23T08:07:15.472Z,1023.34
2018-06-23T08:08:15.511Z,1023.34
2018-06-23T08:09:15.540Z,1023.32
2018-06-23T08:10:15.589Z,1023.28
2018-06-23T08:11:15.599Z,1023.29
2018-06-23T08:12:15.980Z,1023.29
2018-06-23T08:13:15.966Z,1023.27
2018-06-23T08:14:15.696Z,1023.27
2018-06-23T08:15:15.730Z,1023.31
2018-06-23T08:16:15.768Z,1023.35
2018-06-23T08:17:15.804Z,1023.38
2018-06-23T08:18:15.828Z,1023.41
2018-06-23T08:19:15.858Z,1023.40
2018-06-23T08:20:15.919Z,1023.41
2018-06-23T08:21:15.963Z,1023.39
2018-06-23T08:22:15.959Z,1023.41
2018-06-23T08:23:16.032Z,1023.35
2018-06-23T08:24:16.286Z,1023.36
2018-06-23T08:25:16.057Z,1023.34
2018-06-23T08:26:16.169Z,1023.38
2018-06-23T08:27:16.120Z,1023.36
2018-06-23T08:28:16.180Z,1023.39
2018-06-23T08:29:16.215Z,1023.33
2018-06-23T08:30:16.519Z,1023.34
2018-06-23T08:31:16.324Z,1023.32
2018-06-23T08:32:16.293Z,1023.22
2018-06-23T08:33:16.366Z,1023.21
2018-06-23T08:34:16.353Z,1023.21
2018-06-23T08:35:16.382Z,1023.16
2018-06-23T08:36:16.717Z,1023.14
2018-06-23T08:37:16.449Z,1023.14
2018-06-23T08:38:16.493Z,1023.16
2018-06-23T08:39:16.516Z,1023.14
2018-06-23T08:40:16.554Z,1023.21
2018-06-23T08:41:16.578Z,1023.18
2018-06-23T08:42:16.871Z,1023.21
2018-06-23T08:43:16.650Z,1023.21
2018-06-23T08:44:16.687Z,1023.20
2018-06-23T08:45:16.711Z,1023.16
2018-06-23T08:46:16.749Z,1023.26
2018-06-23T08:47:16.784Z,1023.20
2018-06-23T08:48:17.122Z,1023.22
2018-06-23T08:49:16.955Z,1023.23
2018-06-23T08:50:16.893Z,1023.28
2018-06-23T08:51:16.907Z,1023.25
2018-06-23T08:52:16.947Z,1023.25
2018-06-23T08:53:16.982Z,1023.26
2018-06-23T08:54:17.267Z,1023.21
2018-06-23T08:55:17.099Z,1023.27
2018-06-23T08:56:17.077Z,1023.22
2018-06-23T08:57:17.105Z,1023.20
2018-06-23T08:58:17.145Z,1023.17
2018-06-23T08:59:17.198Z,1023.19
2018-06-23T09:00:17.254Z,1023.18
2018-06-23T09:01:17.538Z,1023.17
2018-06-23T09:02:17.274Z,1023.17
2018-06-23T09:03:17.314Z,1023.15
2018-06-23T09:04:17.337Z,1023.21
2018-06-23T09:05:17.419Z,1023.20
2018-06-23T09:06:17.411Z,1023.23
2018-06-23T09:07:17.541Z,1023.18
2018-06-23T09:08:17.772Z,1023.14
2018-06-23T09:09:17.503Z,1023.15
2018-06-23T09:10:17.533Z,1023.12
2018-06-23T09:11:17.573Z,1023.19
2018-06-23T09:12:17.599Z,1023.15
2018-06-23T09:13:17.644Z,1023.06
2018-06-23T09:14:17.665Z,1023.05
2018-06-23T09:15:17.949Z,1023.04
2018-06-23T09:16:17.732Z,1023.02
2018-06-23T09:17:17.775Z,1023.01
2018-06-23T09:18:17.800Z,1022.98
2018-06-23T09:19:17.833Z,1023.00
2018-06-23T09:20:17.863Z,1023.04
2018-06-23T09:21:17.904Z,1023.00
2018-06-23T09:22:18.229Z,1022.98
2018-06-23T09:23:17.972Z,1023.03
2018-06-23T09:24:18.009Z,1022.97
2018-06-23T09:25:18.051Z,1022.95
2018-06-23T09:26:18.067Z,1022.98
2018-06-23T09:27:18.098Z,1022.92
2018-06-23T09:28:18.129Z,1023.00
2018-06-23T09:29:18.423Z,1022.92
2018-06-23T09:30:18.230Z,1022.94
2018-06-23T09:31:18.251Z,1022.96
2018-06-23T09:32:18.264Z,1022.95
2018-06-23T09:33:18.300Z,1022.91
2018-06-23T09:34:18.353Z,1022.96
2018-06-23T09:35:18.365Z,1023.02
2018-06-23T09:36:18.696Z,1023.00
2018-06-23T09:37:18.426Z,1023.05
2018-06-23T09:38:18.461Z,1023.03
2018-06-23T09:39:18.507Z,1023.03
2018-06-23T09:40:18.537Z,1023.09
2018-06-23T09:41:18.575Z,1023.05
2018-06-23T09:42:18.589Z,1023.07
2018-06-23T09:43:18.874Z,1023.14
2018-06-23T09:44:18.664Z,1023.12
2018-06-23T09:45:18.715Z,1023.14
2018-06-23T09:46:18.844Z,1023.10
2018-06-23T09:47:18.761Z,1023.11
2018-06-23T09:48:18.789Z,1023.10
2018-06-23T09:49:18.824Z,1023.19
2018-06-23T09:50:19.102Z,1023.08
2018-06-23T09:51:18.905Z,1023.08
2018-06-23T09:52:18.925Z,1023.12
2018-06-23T09:53:18.964Z,1023.13
2018-06-23T09:54:18.994Z,1023.11
2018-06-23T09:55:19.019Z,1023.09
2018-06-23T09:56:19.055Z,1023.11
2018-06-23T09:57:19.363Z,1023.10
2018-06-23T09:58:19.119Z,1023.04
2018-06-23T09:59:19.148Z,1023.03
2018-06-23T10:00:19.187Z,1023.08
2018-06-23T10:01:19.232Z,1023.06
2018-06-23T10:02:19.255Z,1023.05
2018-06-23T10:03:19.366Z,1023.05
2018-06-23T10:04:19.562Z,1023.09
2018-06-23T10:05:19.363Z,1023.07
2018-06-23T10:06:19.389Z,1023.02
2018-06-23T10:07:19.446Z,1023.03
2018-06-23T10:08:19.484Z,1022.99
2018-06-23T10:09:19.539Z,1023.07
2018-06-23T10:10:19.513Z,1023.07
2018-06-23T10:11:19.843Z,1023.02
2018-06-23T10:12:19.650Z,1023.06
2018-06-23T10:13:19.608Z,1023.05
2018-06-23T10:14:19.654Z,1023.04
2018-06-23T10:15:19.700Z,1023.05
2018-06-23T10:16:19.860Z,1023.02
2018-06-23T10:17:19.740Z,1023.03
2018-06-23T10:18:20.035Z,1023.02
2018-06-23T10:19:19.810Z,1023.09
2018-06-23T10:20:19.843Z,1023.11
2018-06-23T10:21:19.920Z,1023.10
2018-06-23T10:22:19.927Z,1023.17
2018-06-23T10:23:19.946Z,1023.16
2018-06-23T10:24:20.307Z,1023.14
2018-06-23T10:25:20.005Z,1023.15
2018-06-23T10:26:20.044Z,1023.22
2018-06-23T10:27:20.092Z,1023.25
2018-06-23T10:28:20.104Z,1023.20
2018-06-23T10:29:20.138Z,1023.25
2018-06-23T10:30:20.418Z,1023.21
2018-06-23T10:31:20.200Z,1023.25
2018-06-23T10:32:20.239Z,1023.22
2018-06-23T10:33:20.266Z,1023.21
2018-06-23T10:34:20.301Z,1023.22
2018-06-23T10:35:20.342Z,1023.15
2018-06-23T10:36:20.675Z,1023.18
2018-06-23T10:37:20.430Z,1023.16
2018-06-23T10:38:20.525Z,1023.16
2018-06-23T10:39:20.486Z,1023.15
2018-06-23T10:40:20.506Z,1023.19
2018-06-23T10:41:20.665Z,1023.20
2018-06-23T10:42:20.813Z,1023.20
2018-06-23T10:43:20.604Z,1023.19
2018-06-23T10:44:20.633Z,1023.20
2018-06-23T10:45:20.676Z,1023.19
2018-06-23T10:46:20.726Z,1023.20
2018-06-23T10:47:20.737Z,1023.22
2018-06-23T10:48:21.015Z,1023.10
2018-06-23T10:49:20.800Z,1023.16
2018-06-23T10:50:20.829Z,1023.11
2018-06-23T10:51:20.866Z,1023.15
2018-06-23T10:52:20.897Z,1023.13
2018-06-23T10:53:20.936Z,1023.14
2018-06-23T10:54:21.269Z,1023.16
2018-06-23T10:55:21.006Z,1023.14
2018-06-23T10:56:21.058Z,1023.16
2018-06-23T10:57:21.076Z,1023.13
2018-06-23T10:58:21.112Z,1023.15
2018-06-23T10:59:21.141Z,1023.15
2018-06-23T11:00:21.417Z,1023.15
2018-06-23T11:01:21.205Z,1023.11
2018-06-23T11:02:21.235Z,1023.09
2018-06-23T11:03:21.266Z,1023.14
2018-06-23T11:04:21.306Z,1023.10
2018-06-23T11:05:21.337Z,1023.14
2018-06-23T11:06:21.700Z,1023.18
2018-06-23T11:07:21.401Z,1023.13
2018-06-23T11:08:21.446Z,1023.13
2018-06-23T11:09:21.508Z,1023.19
2018-06-23T11:10:21.513Z,1023.17
2018-06-23T11:11:21.538Z,1023.18
2018-06-23T11:12:21.840Z,1023.18
2018-06-23T11:13:21.606Z,1023.17
2018-06-23T11:14:21.638Z,1023.14
2018-06-23T11:15:21.706Z,1023.17
2018-06-23T11:16:21.715Z,1023.14
2018-06-23T11:17:21.741Z,1023.09
2018-06-23T11:18:22.086Z,1023.19
2018-06-23T11:19:21.851Z,1023.15
2018-06-23T11:20:21.872Z,1023.15
2018-06-23T11:21:21.883Z,1023.19
2018-06-23T11:22:21.971Z,1023.19
2018-06-23T11:23:21.989Z,1023.22
2018-06-23T11:24:22.581Z,1023.19
2018-06-23T11:25:22.112Z,1023.18
2018-06-23T11:26:22.107Z,1023.19
2018-06-23T11:27:22.086Z,1023.17
2018-06-23T11:28:22.117Z,1023.16
2018-06-23T11:29:22.374Z,1023.15
2018-06-23T11:30:22.516Z,1023.12
2018-06-23T11:31:22.349Z,1023.13
2018-06-23T11:32:22.272Z,1023.14
2018-06-23T11:33:22.348Z,1023.14
2018-06-23T11:34:22.391Z,1023.09
2018-06-23T11:35:22.409Z,1023.20
2018-06-23T11:36:22.554Z,1023.14
2018-06-23T11:37:22.789Z,1023.15
2018-06-23T11:38:22.585Z,1023.16
2018-06-23T11:39:22.584Z,1023.19
2018-06-23T11:40:22.549Z,1023.11
2018-06-23T11:41:22.670Z,1023.18
2018-06-23T11:42:22.742Z,1023.19
2018-06-23T11:43:22.823Z,1023.17
2018-06-23T11:44:23.032Z,1023.15
2018-06-23T11:45:22.739Z,1023.19
2018-06-23T11:46:22.735Z,1023.22
2018-06-23T11:47:22.810Z,1023.16
2018-06-23T11:48:22.869Z,1023.23
2018-06-23T11:49:22.829Z,1023.22
2018-06-23T11:50:23.205Z,1023.30
2018-06-23T11:51:23.199Z,1023.30
2018-06-23T11:52:23.062Z,1023.27
2018-06-23T11:53:23.100Z,1023.27
2018-06-23T11:54:23.048Z,1023.27
2018-06-23T11:55:23.028Z,1023.23
2018-06-23T11:56:23.068Z,1023.23
2018-06-23T11:57:23.663Z,1023.30
2018-06-23T11:58:23.426Z,1023.28
2018-06-23T11:59:23.240Z,1023.25
2018-06-23T12:00:23.294Z,1023.27
2018-06-23T12:01:23.251Z,1023.28
2018-06-23T12:02:23.286Z,1023.27
2018-06-23T12:03:23.351Z,1023.23
2018-06-23T12:04:23.408Z,1023.21
2018-06-23T12:05:23.732Z,1023.22